createdAt,value
2019-05-19T00:00:16.856Z,996.92
2019-05-19T00:01:16.829Z,996.91
2019-05-19T00:02:16.814Z,996.90
2019-05-19T00:03:16.789Z,996.88
2019-05-19T00:04:16.782Z,996.87
2019-05-19T00:05:16.774Z,996.87
2019-05-19T00:06:16.737Z,996.84
2019-05-19T00:07:16.721Z,996.82
2019-05-19T00:08:16.708Z,996.82
2019-05-19T00:09:16.817Z,996.82
2019-05-19T00:10:16.686Z,996.81
2019-05-19T06:09:28.796Z,996.34
2019-05-19T06:10:28.760Z,996.36
2019-05-19T06:11:28.740Z,996.39
2019-05-19T06:12:28.733Z,996.42
2019-05-19T06:13:28.697Z,996.42
2019-05-19T06:14:28.678Z,996.44
2019-05-19T06:15:28.672Z,996.43
2019-05-19T06:16:28.637Z,996.45
2019-05-19T06:17:28.653Z,996.48
2019-05-19T06:18:28.603Z,996.45
2019-05-19T06:19:28.579Z,996.44
2019-05-19T06:20:28.560Z,996.47
2019-05-19T06:21:28.544Z,996.47
2019-05-19T06:22:28.527Z,996.42
2019-05-19T06:23:28.518Z,996.46
2019-05-19T06:24:28.488Z,996.48
2019-05-19T06:25:28.513Z,996.44
2019-05-19T06:26:28.450Z,996.45
2019-05-19T06:27:28.433Z,996.49
2019-05-19T06:28:28.428Z,996.52
2019-05-19T06:29:28.400Z,996.47
2019-05-19T06:30:28.378Z,996.51
2019-05-19T06:31:28.361Z,996.53
2019-05-19T06:32:28.346Z,996.54
2019-05-19T06:33:28.351Z,996.53
2019-05-19T06:34:28.307Z,996.55
2019-05-19T06:35:28.290Z,996.59
2019-05-19T06:36:28.273Z,996.54
2019-05-19T06:37:28.255Z,996.56
2019-05-19T06:38:28.243Z,996.60
2019-05-19T06:39:28.235Z,996.55
2019-05-19T06:40:28.216Z,996.55
2019-05-19T06:41:28.187Z,996.55
2019-05-19T06:42:28.174Z,996.60
2019-05-19T06:43:28.157Z,996.63
2019-05-19T06:44:28.154Z,996.63
2019-05-19T06:45:28.130Z,996.64
2019-05-19T06:46:28.102Z,996.64
2019-05-19T06:47:28.085Z,996.63
2019-05-19T06:48:28.071Z,996.62
2019-05-19T06:49:28.065Z,996.66
2019-05-19T06:50:28.037Z,996.65
2019-05-19T06:51:28.075Z,996.68
2019-05-19T06:52:28.005Z,996.70
2019-05-19T06:53:27.993Z,996.71
2019-05-19T06:54:27.992Z,996.70
2019-05-19T06:55:27.971Z,996.74
2019-05-19T06:56:27.942Z,996.76
2019-05-19T06:57:27.926Z,996.75
2019-05-19T06:58:27.909Z,996.77
2019-05-19T06:59:27.890Z,996.72
2019-05-19T07:00:27.886Z,996.71
2019-05-19T07:01:27.860Z,996.65
2019-05-19T07:02:27.845Z,996.66
2019-05-19T07:03:27.886Z,996.66
2019-05-19T07:04:27.807Z,996.65
2019-05-19T07:05:28.542Z,996.64
2019-05-19T07:06:27.964Z,996.63
2019-05-19T07:07:27.760Z,996.62
2019-05-19T07:08:27.781Z,996.65
2019-05-19T07:09:27.748Z,996.62
2019-05-19T07:10:27.735Z,996.66
2019-05-19T07:11:27.709Z,996.69
2019-05-19T07:12:27.683Z,996.66
2019-05-19T07:13:27.696Z,996.66
2019-05-19T07:14:27.652Z,996.63
2019-05-19T07:15:27.639Z,996.66
2019-05-19T07:16:27.635Z,996.64
2019-05-19T07:17:27.607Z,996.68
2019-05-19T07:18:27.589Z,996.67
2019-05-19T07:19:27.572Z,996.69
2019-05-19T07:20:27.557Z,996.70
2019-05-19T07:21:27.558Z,996.72
2019-05-19T07:22:27.531Z,996.73
2019-05-19T07:23:28.787Z,996.71
2019-05-19T07:24:27.497Z,996.74
2019-05-19T07:25:27.483Z,996.72
2019-05-19T07:26:27.486Z,996.76
2019-05-19T07:27:27.451Z,996.74
2019-05-19T07:28:27.435Z,996.74
2019-05-19T07:29:27.421Z,996.74
2019-05-19T07:30:27.410Z,996.74
2019-05-19T07:31:27.409Z,996.74
2019-05-19T07:32:27.374Z,996.78
2019-05-19T07:33:27.360Z,996.76
2019-05-19T07:34:27.403Z,996.73
2019-05-19T07:35:27.329Z,996.73
2019-05-19T07:36:27.334Z,996.67
2019-05-19T07:37:27.316Z,996.66
2019-05-19T07:38:27.286Z,996.68
2019-05-19T07:39:27.271Z,996.70
2019-05-19T07:40:27.272Z,996.69
2019-05-19T07:41:27.244Z,996.68
2019-05-19T07:42:27.240Z,996.69
2019-05-19T07:43:27.212Z,996.68
2019-05-19T07:44:27.198Z,996.64
2019-05-19T07:45:27.181Z,996.58
2019-05-19T07:46:27.166Z,996.64
2019-05-19T07:47:27.990Z,996.60
2019-05-19T07:48:27.138Z,996.62
2019-05-19T07:49:27.274Z,996.65
2019-05-19T07:50:27.110Z,996.63
2019-05-19T07:51:27.093Z,996.64
2019-05-19T07:52:27.087Z,996.69
2019-05-19T07:53:27.081Z,996.67
2019-05-19T07:54:27.057Z,996.65
2019-05-19T07:55:27.048Z,996.63
2019-05-19T07:56:27.034Z,996.66
2019-05-19T07:57:27.008Z,996.61
2019-05-19T07:58:27.044Z,996.63
2019-05-19T07:59:26.976Z,996.58
2019-05-19T08:00:26.968Z,996.55
2019-05-19T08:01:26.954Z,996.54
2019-05-19T08:02:26.938Z,996.53
2019-05-19T08:03:26.937Z,996.57
2019-05-19T08:04:26.913Z,996.56
2019-05-19T08:05:26.895Z,996.57
2019-05-19T08:06:26.882Z,996.57
2019-05-19T08:07:26.869Z,996.60
2019-05-19T08:08:26.890Z,996.60
2019-05-19T08:09:26.851Z,996.64
2019-05-19T08:10:26.824Z,996.65
2019-05-19T08:11:27.079Z,996.68
2019-05-19T08:12:26.797Z,996.63
2019-05-19T08:13:26.783Z,996.61
2019-05-19T08:14:26.786Z,996.62
2019-05-19T08:15:26.755Z,996.63
2019-05-19T08:16:26.776Z,996.68
2019-05-19T08:17:26.727Z,996.58
2019-05-19T08:18:26.863Z,996.59
2019-05-19T08:19:26.712Z,996.58
2019-05-19T08:20:26.684Z,996.59
2019-05-19T08:21:26.732Z,996.60
2019-05-19T08:22:26.658Z,996.58
2019-05-19T08:23:26.643Z,996.60
2019-05-19T08:24:26.643Z,996.59
2019-05-19T08:25:26.619Z,996.58
2019-05-19T08:26:26.602Z,996.58
2019-05-19T08:27:26.589Z,996.59
2019-05-19T08:28:26.573Z,996.57
2019-05-19T08:29:26.576Z,996.58
2019-05-19T08:30:26.574Z,996.57
2019-05-19T08:31:26.547Z,996.56
2019-05-19T08:32:26.520Z,996.56
2019-05-19T08:33:26.518Z,996.55
2019-05-19T08:34:26.519Z,996.55
2019-05-19T08:35:26.482Z,996.54
2019-05-19T08:36:26.471Z,996.55
2019-05-19T08:37:26.475Z,996.50
2019-05-19T08:38:26.439Z,996.44
2019-05-19T08:39:26.427Z,996.46
2019-05-19T08:40:26.427Z,996.46
2019-05-19T08:41:26.399Z,996.49
2019-05-19T08:42:26.383Z,996.46
2019-05-19T08:43:26.370Z,996.50
2019-05-19T08:44:26.358Z,996.47
2019-05-19T08:45:26.362Z,996.46
2019-05-19T08:46:26.341Z,996.48
2019-05-19T08:47:26.319Z,996.47
2019-05-19T08:48:26.302Z,996.49
2019-05-19T08:49:26.316Z,996.51
2019-05-19T08:50:26.292Z,996.50
2019-05-19T08:51:26.261Z,996.53
2019-05-19T08:52:26.247Z,996.52
2019-05-19T08:53:26.331Z,996.49
2019-05-19T08:54:26.222Z,996.48
2019-05-19T08:55:26.222Z,996.45
2019-05-19T08:56:26.196Z,996.43
2019-05-19T08:57:26.186Z,996.41
2019-05-19T08:58:26.167Z,996.37
2019-05-19T08:59:26.190Z,996.39
2019-05-19T09:00:26.153Z,996.39
2019-05-19T09:01:26.125Z,996.34
2019-05-19T09:02:26.112Z,996.36
2019-05-19T09:03:26.102Z,996.38
2019-05-19T09:04:26.085Z,996.38
2019-05-19T09:05:26.100Z,996.38
2019-05-19T09:06:26.059Z,996.36
2019-05-19T09:07:26.042Z,996.40
2019-05-19T09:08:26.035Z,996.41
2019-05-19T09:09:26.020Z,996.39
2019-05-19T09:10:26.003Z,996.36
2019-05-19T09:11:26.002Z,996.37
2019-05-19T09:12:25.975Z,996.37
2019-05-19T09:13:25.963Z,996.34
2019-05-19T09:14:25.946Z,996.36
2019-05-19T09:15:25.933Z,996.33
2019-05-19T09:16:25.935Z,996.33
2019-05-19T09:17:25.917Z,996.32
2019-05-19T09:18:25.894Z,996.31
2019-05-19T09:19:25.883Z,996.29
2019-05-19T09:20:25.868Z,996.31
2019-05-19T09:21:25.875Z,996.31
2019-05-19T09:22:25.841Z,996.26
2019-05-19T09:23:25.828Z,996.29
2019-05-19T09:24:30.362Z,996.26
2019-05-19T09:25:25.810Z,996.25
2019-05-19T09:26:25.808Z,996.26
2019-05-19T09:27:25.771Z,996.32
2019-05-19T09:28:25.758Z,996.27
2019-05-19T09:29:25.745Z,996.24
2019-05-19T09:30:25.731Z,996.24
2019-05-19T09:31:25.717Z,996.22
2019-05-19T09:32:25.722Z,996.22
2019-05-19T09:33:25.689Z,996.23
2019-05-19T09:34:25.677Z,996.20
2019-05-19T09:35:25.661Z,996.20
2019-05-19T09:36:25.657Z,996.19
2019-05-19T09:37:25.651Z,996.23
2019-05-19T09:38:25.649Z,996.23
2019-05-19T09:39:25.609Z,996.22
2019-05-19T09:40:26.775Z,996.25
2019-05-19T09:41:25.595Z,996.27
2019-05-19T09:42:25.584Z,996.25
2019-05-19T09:43:25.557Z,996.23
2019-05-19T09:44:25.543Z,996.20
2019-05-19T09:45:25.531Z,996.20
2019-05-19T09:46:25.517Z,996.17
2019-05-19T09:47:25.517Z,996.24
2019-05-19T09:48:25.493Z,996.17
2019-05-19T09:49:25.479Z,996.17
2019-05-19T09:50:25.465Z,996.19
2019-05-19T09:51:25.450Z,996.14
2019-05-19T09:52:25.477Z,996.16
2019-05-19T09:53:25.426Z,996.17
2019-05-19T09:54:25.417Z,996.15
2019-05-19T09:55:25.399Z,996.10
2019-05-19T09:56:25.386Z,996.12
2019-05-19T09:57:25.373Z,996.08
2019-05-19T09:58:25.373Z,996.09
2019-05-19T09:59:25.347Z,996.07
2019-05-19T10:00:25.335Z,996.04
2019-05-19T10:01:25.323Z,996.07
2019-05-19T10:02:25.308Z,996.04
2019-05-19T10:03:25.311Z,996.03
2019-05-19T10:04:25.291Z,996.03
2019-05-19T10:05:25.272Z,996.00
2019-05-19T10:06:25.262Z,995.99
2019-05-19T10:07:25.244Z,996.01
2019-05-19T10:08:25.253Z,996.00
2019-05-19T10:09:25.221Z,996.03
2019-05-19T10:10:25.210Z,996.03
2019-05-19T10:11:25.199Z,995.97
2019-05-19T10:12:25.182Z,995.97
2019-05-19T10:13:25.188Z,995.98
2019-05-19T10:14:25.159Z,995.95
2019-05-19T10:15:25.144Z,995.91
2019-05-19T10:16:25.137Z,995.93
2019-05-19T10:17:25.119Z,995.93
2019-05-19T10:18:25.109Z,995.95
2019-05-19T10:19:25.111Z,995.90
2019-05-19T10:20:25.083Z,995.93
2019-05-19T10:21:25.069Z,995.98
2019-05-19T10:22:25.060Z,995.92
2019-05-19T10:23:25.043Z,995.94
2019-05-19T10:24:25.049Z,995.89
2019-05-19T10:25:25.043Z,995.88
2019-05-19T10:26:25.008Z,995.92
2019-05-19T10:27:24.994Z,995.91
2019-05-19T10:28:24.982Z,995.92
2019-05-19T10:29:24.991Z,995.88
2019-05-19T10:30:24.964Z,995.88
2019-05-19T10:31:24.944Z,995.88
2019-05-19T10:32:24.934Z,995.85
2019-05-19T10:33:24.921Z,995.82
2019-05-19T10:34:24.909Z,995.82
2019-05-19T10:35:24.910Z,995.83
2019-05-19T10:36:24.884Z,995.80
2019-05-19T10:37:24.872Z,995.82
2019-05-19T10:38:24.863Z,995.80
2019-05-19T10:39:24.851Z,995.82
2019-05-19T10:40:24.855Z,995.84
2019-05-19T10:41:24.822Z,995.84
2019-05-19T10:42:24.813Z,995.80
2019-05-19T10:43:24.799Z,995.84
2019-05-19T10:44:24.788Z,995.83
2019-05-19T10:45:24.812Z,995.81
2019-05-19T10:46:24.764Z,995.83
2019-05-19T10:47:24.803Z,995.81
2019-05-19T10:48:24.740Z,995.82
2019-05-19T10:49:24.729Z,995.86
2019-05-19T10:50:24.719Z,995.84
2019-05-19T10:51:24.720Z,995.81
2019-05-19T10:52:24.707Z,995.78
2019-05-19T10:53:24.683Z,995.79
2019-05-19T10:54:24.672Z,995.78
2019-05-19T10:55:35.971Z,995.81
2019-05-19T10:56:24.671Z,995.78
2019-05-19T10:57:24.635Z,995.74
2019-05-19T10:58:24.614Z,995.75
2019-05-19T10:59:24.601Z,995.78
2019-05-19T11:00:24.590Z,995.77
2019-05-19T11:01:24.577Z,995.75
2019-05-19T11:02:24.580Z,995.79
2019-05-19T11:03:24.554Z,995.77
2019-05-19T11:04:24.543Z,995.81
2019-05-19T11:05:24.527Z,995.82
2019-05-19T11:06:25.511Z,995.76
2019-05-19T11:07:24.516Z,995.79
2019-05-19T11:08:24.495Z,995.74
2019-05-19T11:09:24.480Z,995.75
2019-05-19T11:10:24.471Z,995.78
2019-05-19T11:11:24.455Z,995.81
2019-05-19T11:12:24.491Z,995.84
2019-05-19T11:13:24.475Z,995.80
2019-05-19T11:14:24.421Z,995.77
2019-05-19T11:15:24.410Z,995.75
2019-05-19T11:16:24.401Z,995.73
2019-05-19T11:17:24.385Z,995.74
2019-05-19T11:18:24.499Z,995.70
2019-05-19T11:19:24.389Z,995.71
2019-05-19T11:20:24.349Z,995.70
2019-05-19T11:21:24.335Z,995.72
2019-05-19T11:22:24.339Z,995.72
2019-05-19T11:23:24.359Z,995.70
2019-05-19T11:24:24.311Z,995.65
2019-05-19T11:25:33.376Z,995.67
2019-05-19T11:26:24.278Z,995.63
2019-05-19T11:27:24.271Z,995.65
2019-05-19T11:28:24.478Z,995.65
2019-05-19T11:29:24.243Z,995.66
2019-05-19T11:30:24.233Z,995.65
2019-05-19T11:31:24.219Z,995.65
2019-05-19T11:32:24.210Z,995.67
2019-05-19T11:33:24.197Z,995.70
2019-05-19T11:34:24.211Z,995.62
2019-05-19T11:35:24.174Z,995.68
2019-05-19T11:36:24.166Z,995.69
2019-05-19T11:37:24.153Z,995.67
2019-05-19T11:38:24.148Z,995.67
2019-05-19T11:39:24.143Z,995.69
2019-05-19T11:40:24.117Z,995.64
2019-05-19T11:41:24.132Z,995.65
2019-05-19T11:42:24.096Z,995.69
2019-05-19T11:43:24.085Z,995.66
2019-05-19T11:44:24.109Z,995.62
2019-05-19T11:45:24.060Z,995.65
2019-05-19T11:46:24.049Z,995.63
2019-05-19T11:47:24.037Z,995.63
2019-05-19T11:48:24.025Z,995.65
2019-05-19T11:49:24.019Z,995.66
2019-05-19T11:50:24.018Z,995.63
2019-05-19T11:51:24.036Z,995.64
2019-05-19T11:52:23.980Z,995.65
2019-05-19T11:53:23.973Z,995.63
2019-05-19T11:54:23.958Z,995.64
2019-05-19T11:55:23.963Z,995.64
2019-05-19T11:56:23.951Z,995.62
2019-05-19T11:57:24.109Z,995.62
2019-05-19T11:58:24.002Z,995.61
2019-05-19T11:59:23.914Z,995.60
2019-05-19T12:00:23.961Z,995.61
2019-05-19T12:01:23.924Z,995.61
2019-05-19T12:02:23.875Z,995.59
2019-05-19T12:03:23.862Z,995.60
2019-05-19T12:04:23.867Z,995.62
2019-05-19T12:05:23.892Z,995.62
2019-05-19T12:06:38.006Z,995.62
2019-05-19T12:07:23.814Z,995.59
2019-05-19T12:08:23.808Z,995.60
2019-05-19T12:09:23.825Z,995.61
2019-05-19T12:10:23.783Z,995.60
2019-05-19T12:11:23.782Z,995.56
2019-05-19T12:12:23.758Z,995.57
2019-05-19T12:13:23.750Z,995.57
2019-05-19T12:14:23.742Z,995.59
2019-05-19T12:15:23.727Z,995.59
2019-05-19T12:16:23.754Z,995.58
2019-05-19T12:17:23.702Z,995.53
2019-05-19T12:18:23.694Z,995.52
2019-05-19T12:19:23.719Z,995.55
2019-05-19T12:20:23.670Z,995.56
2019-05-19T12:21:23.659Z,995.57
2019-05-19T12:22:23.676Z,995.51
2019-05-19T12:23:23.651Z,995.50
2019-05-19T12:24:23.637Z,995.52
2019-05-19T12:25:23.692Z,995.51
2019-05-19T12:26:23.912Z,995.44
2019-05-19T12:27:23.617Z,995.44
2019-05-19T12:28:23.589Z,995.44
2019-05-19T12:29:23.571Z,995.43
2019-05-19T12:30:23.558Z,995.42
2019-05-19T12:31:23.553Z,995.40
2019-05-19T12:32:23.559Z,995.36
2019-05-19T12:33:23.527Z,995.37
2019-05-19T12:34:23.520Z,995.35
2019-05-19T12:35:23.516Z,995.34
2019-05-19T12:36:23.497Z,995.35
2019-05-19T12:37:23.520Z,995.34
2019-05-19T12:38:23.468Z,995.29
2019-05-19T12:39:23.462Z,995.31
2019-05-19T12:40:23.448Z,995.33
2019-05-19T12:41:23.440Z,995.32
2019-05-19T12:42:23.431Z,995.36
2019-05-19T12:43:23.434Z,995.37
2019-05-19T12:44:23.405Z,995.37
2019-05-19T12:45:23.392Z,995.43
2019-05-19T12:46:23.384Z,995.46
2019-05-19T12:47:23.381Z,995.46
2019-05-19T12:48:23.375Z,995.47
2019-05-19T12:49:23.351Z,995.51
2019-05-19T12:50:23.337Z,995.52
2019-05-19T12:51:26.662Z,995.51
2019-05-19T12:52:23.315Z,995.55
2019-05-19T12:53:23.342Z,995.56
2019-05-19T12:54:23.306Z,995.57
2019-05-19T12:55:23.284Z,995.55
2019-05-19T12:56:37.128Z,995.53
2019-05-19T12:57:23.262Z,995.53
2019-05-19T12:58:23.272Z,995.49
2019-05-19T12:59:23.240Z,995.53
2019-05-19T13:00:23.231Z,995.52
2019-05-19T13:01:23.222Z,995.49
2019-05-19T13:02:23.284Z,995.50
2019-05-19T13:03:23.201Z,995.53
2019-05-19T13:04:23.207Z,995.52
2019-05-19T13:05:23.182Z,995.56
2019-05-19T13:06:23.172Z,995.53
2019-05-19T13:07:23.162Z,995.58
2019-05-19T13:08:23.152Z,995.58
2019-05-19T13:09:23.157Z,995.58
2019-05-19T13:10:23.135Z,995.53
2019-05-19T13:11:23.123Z,995.57
2019-05-19T13:12:23.114Z,995.51
2019-05-19T13:13:23.104Z,995.53
2019-05-19T13:14:23.108Z,995.52
2019-05-19T13:15:23.087Z,995.50
2019-05-19T13:16:23.076Z,995.47
2019-05-19T13:17:23.064Z,995.49
2019-05-19T13:18:23.055Z,995.52
2019-05-19T13:19:23.075Z,995.56
2019-05-19T13:20:23.034Z,995.57
2019-05-19T13:21:23.026Z,995.58
2019-05-19T13:22:23.015Z,995.63
2019-05-19T13:23:23.007Z,995.66
2019-05-19T13:24:22.997Z,995.68
2019-05-19T13:25:23.004Z,995.67
2019-05-19T13:26:22.974Z,995.69
2019-05-19T13:27:22.966Z,995.73
2019-05-19T13:28:22.952Z,995.79
2019-05-19T13:29:22.942Z,995.80
2019-05-19T13:30:22.954Z,995.86
2019-05-19T13:31:22.916Z,995.87
2019-05-19T13:32:22.910Z,995.84
2019-05-19T13:33:22.896Z,995.95
2019-05-19T13:34:22.887Z,995.98
2019-05-19T13:35:22.886Z,995.99
2019-05-19T13:36:22.863Z,996.04
2019-05-19T13:37:22.849Z,996.06
2019-05-19T13:38:22.837Z,995.99
2019-05-19T13:39:22.829Z,996.08
2019-05-19T13:40:22.830Z,996.05
2019-05-19T13:41:22.805Z,996.08
2019-05-19T13:42:22.792Z,996.04
2019-05-19T13:43:26.187Z,996.04
2019-05-19T13:44:22.773Z,996.01
2019-05-19T13:45:22.769Z,996.02
2019-05-19T13:46:22.744Z,996.08
2019-05-19T13:47:22.731Z,996.00
2019-05-19T13:48:22.721Z,996.07
2019-05-19T13:49:22.715Z,996.13
2019-05-19T13:50:22.710Z,996.08
2019-05-19T13:51:22.682Z,996.09
2019-05-19T13:52:22.668Z,996.16
2019-05-19T13:53:22.655Z,996.11
2019-05-19T13:54:22.645Z,996.10
2019-05-19T13:55:22.645Z,996.10
2019-05-19T13:56:22.618Z,996.11
2019-05-19T13:57:22.605Z,996.15
2019-05-19T13:58:22.604Z,996.13
2019-05-19T13:59:22.577Z,996.17
2019-05-19T14:00:22.582Z,996.14
2019-05-19T14:01:28.782Z,996.14
2019-05-19T14:02:22.542Z,996.13
2019-05-19T14:03:22.524Z,996.20
2019-05-19T14:04:22.512Z,996.11
2019-05-19T14:05:22.498Z,996.21
2019-05-19T14:06:22.501Z,996.15
2019-05-19T14:07:22.471Z,996.15
2019-05-19T14:08:22.460Z,996.22
2019-05-19T14:09:22.454Z,996.14
2019-05-19T14:10:22.431Z,996.15
2019-05-19T14:11:22.429Z,996.17
2019-05-19T14:12:22.404Z,996.15
2019-05-19T14:13:22.390Z,996.17
2019-05-19T14:14:22.376Z,996.18
2019-05-19T14:15:22.407Z,996.15
2019-05-19T14:16:22.374Z,996.16
2019-05-19T14:17:22.339Z,996.18
2019-05-19T14:18:22.323Z,996.23
2019-05-19T14:19:22.318Z,996.23
2019-05-19T14:20:22.293Z,996.33
2019-05-19T14:21:22.329Z,996.32
2019-05-19T14:22:22.266Z,996.37
2019-05-19T14:23:22.254Z,996.34
2019-05-19T14:24:22.245Z,996.37
2019-05-19T14:25:22.226Z,996.38
2019-05-19T14:26:22.214Z,996.33
2019-05-19T14:27:30.066Z,996.35
2019-05-19T14:28:22.190Z,996.30
2019-05-19T14:29:22.177Z,996.27
2019-05-19T14:30:22.167Z,996.33
2019-05-19T14:31:22.191Z,996.23
2019-05-19T14:32:22.157Z,996.22
2019-05-19T14:33:22.129Z,996.26
2019-05-19T14:34:22.121Z,996.24
2019-05-19T14:35:22.106Z,996.20
2019-05-19T14:36:22.094Z,996.25
2019-05-19T14:37:22.097Z,996.31
2019-05-19T14:38:22.071Z,996.25
2019-05-19T14:39:22.058Z,996.22
2019-05-19T14:40:22.047Z,996.27
2019-05-19T14:41:33.105Z,996.28
2019-05-19T14:42:22.055Z,996.19
2019-05-19T14:43:22.010Z,996.25
2019-05-19T14:44:21.999Z,996.18
2019-05-19T14:45:21.986Z,996.20
2019-05-19T14:46:21.974Z,996.21
2019-05-19T14:47:21.999Z,996.23
2019-05-19T14:48:21.957Z,996.19
2019-05-19T14:49:21.941Z,996.22
2019-05-19T14:50:21.932Z,996.21
2019-05-19T14:51:21.933Z,996.25
2019-05-19T14:52:21.920Z,996.24
2019-05-19T14:53:21.889Z,996.18
2019-05-19T14:54:21.873Z,996.19
2019-05-19T14:55:21.866Z,996.19
2019-05-19T14:56:21.850Z,996.16
2019-05-19T14:57:21.874Z,996.23
2019-05-19T14:58:21.824Z,996.18
2019-05-19T14:59:21.809Z,996.16
2019-05-19T15:00:21.799Z,996.18
2019-05-19T15:01:21.793Z,996.16
2019-05-19T15:02:21.775Z,996.17
2019-05-19T15:03:21.779Z,996.18
2019-05-19T15:04:21.748Z,996.16
2019-05-19T15:05:21.734Z,996.14
2019-05-19T15:06:21.722Z,996.27
2019-05-19T15:07:21.707Z,996.25
2019-05-19T15:08:21.709Z,996.30
2019-05-19T15:09:21.683Z,996.13
2019-05-19T15:10:21.672Z,996.25
2019-05-19T15:11:21.660Z,996.29
2019-05-19T15:12:21.648Z,996.26
2019-05-19T15:13:21.672Z,996.27
2019-05-19T15:14:21.627Z,996.23
2019-05-19T15:15:21.613Z,996.16
2019-05-19T15:16:21.600Z,996.15
2019-05-19T15:17:21.592Z,996.12
2019-05-19T15:18:21.579Z,996.18
2019-05-19T15:19:21.582Z,996.30
2019-05-19T15:20:21.557Z,996.29
2019-05-19T15:21:21.549Z,996.27
2019-05-19T15:22:21.537Z,996.25
2019-05-19T15:23:21.527Z,996.30
2019-05-19T15:24:21.533Z,996.40
2019-05-19T15:25:21.509Z,996.36
2019-05-19T15:26:21.503Z,996.44
2019-05-19T15:27:21.493Z,996.24
2019-05-19T15:28:21.481Z,996.25
2019-05-19T15:29:21.492Z,996.10
2019-05-19T15:30:21.463Z,996.08
2019-05-19T15:31:21.453Z,996.04
2019-05-19T15:32:21.446Z,995.94
2019-05-19T15:33:21.466Z,995.92
2019-05-19T15:34:21.428Z,995.88
2019-05-19T15:35:21.431Z,995.86
2019-05-19T15:36:21.409Z,995.80
2019-05-19T15:37:21.401Z,995.79
2019-05-19T15:38:21.393Z,995.80
2019-05-19T15:39:21.382Z,995.77
2019-05-19T15:40:21.386Z,995.77
2019-05-19T15:41:21.438Z,995.82
2019-05-19T15:42:21.355Z,995.82
2019-05-19T15:43:21.350Z,995.80
2019-05-19T15:44:21.336Z,995.78
2019-05-19T15:45:21.341Z,995.79
2019-05-19T15:46:21.320Z,995.77
2019-05-19T15:47:21.309Z,995.68
2019-05-19T15:48:21.297Z,995.72
2019-05-19T15:49:21.286Z,995.66
2019-05-19T15:50:21.293Z,995.68
2019-05-19T15:51:28.735Z,995.60
2019-05-19T15:52:21.257Z,995.62
2019-05-19T15:53:21.244Z,995.63
2019-05-19T15:54:21.237Z,995.60
2019-05-19T15:55:21.243Z,995.61
2019-05-19T15:56:21.215Z,995.66
2019-05-19T15:57:21.204Z,995.58
2019-05-19T15:58:21.197Z,995.57
2019-05-19T15:59:21.182Z,995.50
2019-05-19T16:00:21.172Z,995.52
2019-05-19T16:01:21.173Z,995.55
2019-05-19T16:02:21.154Z,995.53
2019-05-19T16:03:21.146Z,995.44
2019-05-19T16:04:21.128Z,995.40
2019-05-19T16:05:21.120Z,995.40
2019-05-19T16:06:21.132Z,995.34
2019-05-19T16:07:21.099Z,995.36
2019-05-19T16:08:21.092Z,995.33
2019-05-19T16:09:21.073Z,995.39
2019-05-19T16:10:21.080Z,995.34
2019-05-19T16:11:21.075Z,995.39
2019-05-19T16:12:21.042Z,995.42
2019-05-19T16:13:22.118Z,995.40
2019-05-19T16:14:21.021Z,995.40
2019-05-19T16:15:21.009Z,995.29
2019-05-19T16:16:20.998Z,995.29
2019-05-19T16:17:21.009Z,995.25
2019-05-19T16:18:20.980Z,995.44
2019-05-19T16:19:20.972Z,995.48
2019-05-19T16:20:20.962Z,995.32
2019-05-19T16:21:20.967Z,995.41
2019-05-19T16:22:20.960Z,995.31
2019-05-19T16:23:20.928Z,995.20
2019-05-19T16:24:20.921Z,995.25
2019-05-19T16:25:20.910Z,995.17
2019-05-19T16:26:20.899Z,995.18
2019-05-19T16:27:20.906Z,995.32
2019-05-19T16:28:30.404Z,995.39
2019-05-19T16:29:20.876Z,995.28
2019-05-19T16:30:20.861Z,995.27
2019-05-19T16:31:20.850Z,995.34
2019-05-19T16:32:20.892Z,995.42
2019-05-19T16:33:20.835Z,995.46
2019-05-19T16:34:20.826Z,995.36
2019-05-19T16:35:20.819Z,995.23
2019-05-19T16:36:20.815Z,995.23
2019-05-19T16:37:20.803Z,995.15
2019-05-19T16:38:20.809Z,995.27
2019-05-19T16:39:20.786Z,995.34
2019-05-19T16:40:20.782Z,995.11
2019-05-19T16:41:20.771Z,995.06
2019-05-19T16:42:20.765Z,995.07
2019-05-19T16:43:20.768Z,995.09
2019-05-19T16:44:20.747Z,995.18
2019-05-19T16:45:20.740Z,995.07
2019-05-19T16:46:20.731Z,995.01
2019-05-19T16:47:20.722Z,995.03
2019-05-19T16:48:23.271Z,994.99
2019-05-19T16:49:20.708Z,994.95
2019-05-19T16:50:20.710Z,994.94
2019-05-19T16:51:20.693Z,994.88
2019-05-19T16:52:20.704Z,994.92
2019-05-19T16:53:20.675Z,994.91
2019-05-19T16:54:20.681Z,994.85
2019-05-19T16:55:20.658Z,994.88
2019-05-19T16:56:20.648Z,994.82
2019-05-19T16:57:20.652Z,994.88
2019-05-19T16:58:21.810Z,994.90
2019-05-19T16:59:20.654Z,994.86
2019-05-19T17:00:20.623Z,994.89
2019-05-19T17:01:20.604Z,994.89
2019-05-19T17:02:20.592Z,994.87
2019-05-19T17:03:20.595Z,994.88
2019-05-19T17:04:20.585Z,994.87
2019-05-19T17:05:20.562Z,994.88
2019-05-19T17:06:20.551Z,994.91
2019-05-19T17:07:20.547Z,994.92
2019-05-19T17:08:20.532Z,994.94
2019-05-19T17:09:20.657Z,994.94
2019-05-19T17:10:20.526Z,994.93
2019-05-19T17:11:20.499Z,994.94
2019-05-19T17:12:20.487Z,994.96
2019-05-19T17:13:20.476Z,994.95
2019-05-19T17:14:20.465Z,994.99
2019-05-19T17:15:20.471Z,994.98
2019-05-19T17:16:20.443Z,994.94
2019-05-19T17:17:20.433Z,994.92
2019-05-19T17:18:20.421Z,994.93
2019-05-19T17:19:20.412Z,994.93
2019-05-19T17:20:20.426Z,994.94
2019-05-19T17:21:20.387Z,994.90
2019-05-19T17:22:20.374Z,994.93
2019-05-19T17:23:20.361Z,994.87
2019-05-19T17:24:20.351Z,994.92
2019-05-19T17:25:20.342Z,994.89
2019-05-19T17:26:20.342Z,994.91
2019-05-19T17:27:20.315Z,994.94
2019-05-19T17:28:20.300Z,994.96
2019-05-19T17:29:20.289Z,994.99
2019-05-19T17:30:20.278Z,995.09
2019-05-19T17:31:20.278Z,995.01
2019-05-19T17:32:20.252Z,994.99
2019-05-19T17:33:20.244Z,995.03
2019-05-19T17:34:20.229Z,995.03
2019-05-19T17:35:20.219Z,995.02
2019-05-19T17:36:20.240Z,995.00
2019-05-19T17:37:20.192Z,995.03
2019-05-19T17:38:20.178Z,995.04
2019-05-19T17:39:20.182Z,995.03
2019-05-19T17:40:20.153Z,995.00
2019-05-19T17:41:20.144Z,995.01
2019-05-19T17:42:20.143Z,995.02
2019-05-19T17:43:20.120Z,994.99
2019-05-19T17:44:20.108Z,995.00
2019-05-19T17:45:20.091Z,994.92
2019-05-19T17:46:20.087Z,994.97
2019-05-19T17:47:20.105Z,994.95
2019-05-19T17:48:26.591Z,994.92
2019-05-19T17:49:20.048Z,994.94
2019-05-19T17:50:20.037Z,994.90
2019-05-19T17:51:20.033Z,994.94
2019-05-19T17:52:20.008Z,994.92
2019-05-19T17:53:19.994Z,994.97
2019-05-19T17:54:20.290Z,994.94
2019-05-19T17:55:19.968Z,994.97
2019-05-19T17:56:19.992Z,994.92
2019-05-19T17:57:19.950Z,994.91
2019-05-19T17:58:19.933Z,994.93
2019-05-19T17:59:19.916Z,994.90
2019-05-19T18:00:19.901Z,994.90
2019-05-19T18:01:19.891Z,994.94
2019-05-19T18:02:19.893Z,994.95
2019-05-19T18:03:19.861Z,994.94
2019-05-19T18:04:19.849Z,995.02
2019-05-19T18:05:19.839Z,995.00
2019-05-19T18:06:19.824Z,995.00
2019-05-19T18:07:19.825Z,994.99
2019-05-19T18:08:19.797Z,995.03
2019-05-19T18:09:19.785Z,995.06
2019-05-19T18:10:19.773Z,995.05
2019-05-19T18:11:19.758Z,995.06
2019-05-19T18:12:19.743Z,995.07
2019-05-19T18:13:19.745Z,995.06
2019-05-19T18:14:19.716Z,995.13
2019-05-19T18:15:19.707Z,995.14
2019-05-19T18:16:19.692Z,995.21
2019-05-19T18:17:19.673Z,995.24
2019-05-19T18:18:19.677Z,995.23
2019-05-19T18:19:19.647Z,995.30
2019-05-19T18:20:23.861Z,995.29
2019-05-19T18:21:19.619Z,995.30
2019-05-19T18:22:19.606Z,995.31
2019-05-19T18:23:19.606Z,995.31
2019-05-19T18:24:19.578Z,995.33
2019-05-19T18:25:19.563Z,995.39
2019-05-19T18:26:19.549Z,995.38